Time;durP1;ratioP1;P1;durP2;ratioP2;P2;SDS_P1;SDS_P2;PMS_P1;PMS_P2;Temp;Humidity;BMP_temperature;BMP_pressure;BME280_temperature;BME280_humidity;BME280_pressure;Samples;Min_cycle;Max_cycle;Signal;HPM_P1;HPM_P2
2022/06/21 00:00:22;;;;;;;5.43;4.40;;;;;;;13.65;56.70;101065.38;687843;28;1165;-77
2022/06/21 00:00:43;;;;;;;5.75;4.45;;;;;;;13.55;56.93;101047.72;683864;28;1441;-77
2022/06/21 00:01:05;;;;;;;6.35;4.43;;;;;;;13.53;56.77;101045.06;681369;29;1163;-76
2022/06/21 00:01:26;;;;;;;6.95;4.45;;;;;;;13.56;57.22;101055.63;682185;29;1477;-76
2022/06/21 00:01:47;;;;;;;6.85;4.40;;;;;;;13.59;56.85;101065.28;685692;28;1262;-76
2022/06/21 00:02:10;;;;;;;6.10;4.50;;;;;;;13.55;56.92;101053.88;682519;29;1192;-76
2022/06/21 00:02:33;;;;;;;5.93;4.70;;;;;;;13.56;56.96;101060.88;679933;29;1273;-77
2022/06/21 00:02:59;;;;;;;6.10;5.00;;;;;;;13.62;56.75;101061.81;679612;29;1244;-76
2022/06/21 00:03:23;;;;;;;5.72;5.03;;;;;;;13.59;56.88;101065.28;685112;28;1116;-77
2022/06/21 00:03:45;;;;;;;5.50;4.90;;;;;;;13.55;56.92;101051.25;682338;29;1221;-76
2022/06/21 00:04:06;;;;;;;6.25;5.05;;;;;;;13.57;57.19;101056.50;682250;29;1614;-76
2022/06/21 00:04:27;;;;;;;6.95;5.30;;;;;;;13.57;57.17;101056.50;679729;29;1504;-77
2022/06/21 00:04:48;;;;;;;7.22;5.25;;;;;;;13.59;57.04;101065.28;679719;29;1148;-76
2022/06/21 00:05:24;;;;;;;6.07;4.80;;;;;;;13.49;57.03;101048.47;679920;29;1066;-77
2022/06/21 00:05:46;;;;;;;5.35;4.75;;;;;;;13.59;56.93;101062.69;681002;29;1168;-76
2022/06/21 00:06:14;;;;;;;6.50;5.00;;;;;;;13.51;57.22;101053.78;679876;29;1181;-77
2022/06/21 00:06:34;;;;;;;7.40;5.10;;;;;;;13.52;56.94;101052.91;683443;28;1037;-77
2022/06/21 00:07:00;;;;;;;6.50;5.13;;;;;;;13.56;56.89;101066.13;681792;29;875;-77
2022/06/21 00:07:23;;;;;;;6.22;4.82;;;;;;;13.54;57.09;101057.31;682487;29;1198;-77
2022/06/21 00:07:44;;;;;;;6.25;4.47;;;;;;;13.56;56.96;101059.97;680732;29;1730;-77
2022/06/21 00:08:17;;;;;;;6.68;4.90;;;;;;;13.48;56.93;101043.19;679919;29;960;-77
2022/06/21 00:08:39;;;;;;;6.65;4.95;;;;;;;13.48;57.23;101045.81;682312;28;1673;-76
2022/06/21 00:09:00;;;;;;;7.15;5.00;;;;;;;13.49;56.95;101050.22;682466;29;1269;-77
2022/06/21 00:09:21;;;;;;;6.53;5.00;;;;;;;13.55;57.08;101058.19;682241;29;1923;-77
2022/06/21 00:09:42;;;;;;;5.68;4.90;;;;;;;13.50;57.22;101041.47;677534;29;1289;-76
2022/06/21 00:10:03;;;;;;;6.63;4.80;;;;;;;13.51;57.24;101051.16;679671;29;1067;-78
2022/06/21 00:10:25;;;;;;;6.47;4.88;;;;;;;13.59;57.08;101059.16;676983;29;1126;-76
2022/06/21 00:10:46;;;;;;;5.93;5.18;;;;;;;13.61;57.20;101060.97;682440;29;1347;-77
2022/06/21 00:11:15;;;;;;;7.10;5.13;;;;;;;13.51;56.98;101051.16;682315;29;1063;-76
2022/06/21 00:11:35;;;;;;;7.40;5.30;;;;;;;13.48;57.16;101062.44;680909;29;1137;-76
2022/06/21 00:11:56;;;;;;;6.47;5.07;;;;;;;13.45;57.01;101053.63;682714;29;729;-77
2022/06/21 00:12:17;;;;;;;5.60;4.90;;;;;;;13.42;57.15;101057.06;682504;28;1182;-77
2022/06/21 00:12:38;;;;;;;5.43;4.50;;;;;;;13.39;57.26;101046.53;682296;29;1057;-77
2022/06/21 00:12:58;;;;;;;5.57;4.80;;;;;;;13.41;57.38;101058.78;684115;28;1241;-77
2022/06/21 00:13:22;;;;;;;5.70;5.10;;;;;;;13.37;57.17;101051.75;682091;29;1472;-76
2022/06/21 00:13:43;;;;;;;5.82;5.32;;;;;;;13.38;57.45;101056.13;684258;28;2020;-77
2022/06/21 00:14:04;;;;;;;5.85;5.25;;;;;;;13.37;57.22;101058.69;679889;29;1014;-76
2022/06/21 00:14:25;;;;;;;5.97;5.07;;;;;;;13.35;57.37;101053.44;677119;29;1252;-77
2022/06/21 00:14:47;;;;;;;7.28;5.18;;;;;;;13.34;57.65;101056.91;683456;28;1112;-77
2022/06/21 00:15:09;;;;;;;6.78;5.15;;;;;;;13.33;57.75;101062.13;682339;29;1605;-77
2022/06/21 00:15:29;;;;;;;6.70;5.13;;;;;;;13.33;57.63;101056.88;682515;29;1217;-76
2022/06/21 00:15:54;;;;;;;5.50;4.90;;;;;;;13.31;57.64;101059.47;682059;29;1338;-77
2022/06/21 00:16:16;;;;;;;5.30;4.80;;;;;;;13.33;57.72;101065.63;679769;29;1176;-77
2022/06/21 00:16:37;;;;;;;5.00;4.50;;;;;;;13.33;57.76;101068.25;680691;29;1396;-77
2022/06/21 00:16:58;;;;;;;5.70;4.85;;;;;;;13.34;57.79;101066.50;682507;29;883;-77
2022/06/21 00:17:21;;;;;;;6.87;5.20;;;;;;;13.43;57.72;101064.97;682566;29;1091;-77
2022/06/21 00:17:47;;;;;;;7.47;5.40;;;;;;;13.52;57.59;101079.13;682916;28;1007;-76
2022/06/21 00:18:13;;;;;;;5.88;4.97;;;;;;;13.48;57.18;101069.41;683599;28;1628;-77
2022/06/21 00:18:36;;;;;;;6.22;5.10;;;;;;;13.48;57.31;101061.56;679226;29;1610;-76
2022/06/21 00:18:58;;;;;;;7.53;5.20;;;;;;;13.41;57.40;101071.91;679945;29;1242;-77
2022/06/21 00:19:22;;;;;;;9.48;5.57;;;;;;;13.32;57.68;101061.22;679792;29;1136;-77
2022/06/21 00:35:13;;;;;;;8.63;5.20;;;;;;;13.19;58.83;101064.44;688801;28;1538;-77
2022/06/21 00:35:34;;;;;;;6.80;5.10;;;;;;;13.13;58.75;101060.84;684469;28;1746;-76
2022/06/21 00:35:59;;;;;;;7.63;5.30;;;;;;;13.15;58.78;101058.25;681856;29;1129;-76
2022/06/21 00:36:28;;;;;;;8.15;5.05;;;;;;;13.08;58.80;101062.47;679399;29;1546;-77
2022/06/21 00:36:51;;;;;;;7.57;5.20;;;;;;;13.13;58.63;101073.94;681307;29;1525;-76
2022/06/21 00:37:22;;;;;;;7.55;5.20;;;;;;;13.14;59.05;101073.09;685117;28;1283;-77
2022/06/21 00:37:44;;;;;;;6.40;4.75;;;;;;;13.06;58.68;101069.41;683182;28;1679;-76
2022/06/21 00:38:04;;;;;;;7.22;4.75;;;;;;;13.06;58.99;101069.41;676851;29;1658;-77
2022/06/21 00:38:29;;;;;;;8.00;4.90;;;;;;;13.02;58.86;101064.94;682447;28;757;-76
2022/06/21 00:38:51;;;;;;;7.65;5.00;;;;;;;13.07;58.84;101079.03;686583;28;1321;-76
2022/06/21 00:39:15;;;;;;;8.45;5.10;;;;;;;13.00;58.95;101069.28;684948;28;1553;-76
2022/06/21 00:39:35;;;;;;;8.73;5.40;;;;;;;12.97;58.81;101074.44;680665;28;1314;-76
2022/06/21 00:39:56;;;;;;;9.13;5.50;;;;;;;12.93;58.90;101062.09;685183;28;744;-76
2022/06/21 00:40:25;;;;;;;6.90;5.50;;;;;;;12.89;58.98;101059.41;685153;28;1037;-76
2022/06/21 00:40:46;;;;;;;6.22;5.30;;;;;;;12.94;59.02;101072.63;684920;28;1046;-78
2022/06/21 00:41:10;;;;;;;6.90;5.13;;;;;;;12.88;59.02;101073.34;682574;28;2213;-78
2022/06/21 00:41:33;;;;;;;7.53;5.07;;;;;;;12.96;59.23;101083.16;684838;28;1291;-77
2022/06/21 00:42:21;;;;;;;7.10;5.10;;;;;;;12.85;59.20;101065.41;677760;29;1258;-77
2022/06/21 00:42:44;;;;;;;6.80;5.50;;;;;;;12.83;59.43;101060.97;679347;29;1320;-76
2022/06/21 00:43:25;;;;;;;6.60;5.30;;;;;;;12.84;59.46;101073.25;684955;28;1191;-77
2022/06/21 00:43:50;;;;;;;8.60;5.38;;;;;;;12.78;59.66;101060.00;680683;29;1206;-77
2022/06/21 00:44:41;;;;;;;10.50;5.60;;;;;;;12.86;59.66;101075.03;679618;29;1283;-77
2022/06/21 00:45:05;;;;;;;7.20;6.00;;;;;;;12.89;59.58;101080.34;676674;29;1721;-77
2022/06/21 00:45:31;;;;;;;6.72;5.50;;;;;;;12.77;59.86;101059.09;682322;29;1237;-76
2022/06/21 00:45:52;;;;;;;8.00;5.50;;;;;;;12.79;59.99;101065.25;684350;28;1371;-76
2022/06/21 00:46:46;;;;;;;7.53;5.50;;;;;;;12.91;60.12;101084.75;681802;29;1182;-76
2022/06/21 00:47:42;;;;;;;6.50;4.90;;;;;;;12.78;60.29;101060.00;682413;28;1282;-77
2022/06/21 00:48:41;;;;;;;6.93;5.40;;;;;;;12.94;60.08;101083.13;683493;28;1222;-77
2022/06/21 00:49:02;;;;;;;7.18;4.80;;;;;;;12.92;59.99;101076.94;676923;29;1298;-77
2022/06/21 00:49:32;;;;;;;7.38;5.18;;;;;;;12.86;60.30;101067.19;676698;29;1818;-76
2022/06/21 00:49:57;;;;;;;8.30;5.50;;;;;;;12.88;60.28;101060.25;684112;28;1405;-76
2022/06/21 00:50:35;;;;;;;7.40;5.30;;;;;;;12.92;60.30;101071.69;682060;28;1787;-76
2022/06/21 00:51:25;;;;;;;6.80;5.03;;;;;;;12.95;60.28;101073.50;682020;29;1395;-76
2022/06/21 00:51:47;;;;;;;6.30;5.05;;;;;;;12.89;60.30;101064.66;681452;28;2024;-76
2022/06/21 00:52:17;;;;;;;9.05;5.32;;;;;;;12.92;59.86;101070.78;679374;29;1221;-77
2022/06/21 00:52:44;;;;;;;10.30;5.50;;;;;;;12.95;60.00;101071.78;676475;29;1141;-76
2022/06/21 00:53:15;;;;;;;7.55;5.50;;;;;;;12.89;59.95;101062.03;677165;29;1015;-76
2022/06/21 00:53:40;;;;;;;7.10;5.45;;;;;;;12.91;60.04;101063.78;682157;29;1081;-76
2022/06/21 00:54:10;;;;;;;8.20;5.40;;;;;;;12.95;60.30;101071.78;677050;29;1279;-76
2022/06/21 00:54:45;;;;;;;8.77;5.28;;;;;;;12.85;60.20;101060.16;680180;29;1771;-76
2022/06/21 00:55:14;;;;;;;6.65;5.50;;;;;;;12.94;60.17;101076.97;684791;28;1442;-77
2022/06/21 00:55:43;;;;;;;6.25;5.43;;;;;;;12.86;60.08;101061.94;683020;28;1619;-76
2022/06/21 00:56:14;;;;;;;6.60;5.20;;;;;;;12.82;60.15;101049.63;679675;29;1182;-77
2022/06/21 00:56:40;;;;;;;6.75;5.00;;;;;;;12.83;60.13;101061.88;680662;29;1803;-76
2022/06/21 00:57:05;;;;;;;6.60;5.20;;;;;;;12.89;59.95;101082.97;682489;29;859;-76
2022/06/21 00:57:53;;;;;;;7.25;5.53;;;;;;;12.94;59.96;101088.34;682345;28;2034;-76
2022/06/21 00:58:17;;;;;;;6.78;5.50;;;;;;;12.84;59.99;101084.59;677153;29;1467;-76
2022/06/21 00:58:37;;;;;;;6.60;5.10;;;;;;;12.79;59.95;101062.63;681095;29;1297;-76
2022/06/21 00:59:15;;;;;;;7.22;5.50;;;;;;;12.78;60.23;101070.47;681844;29;1779;-76
2022/06/21 00:59:38;;;;;;;7.95;6.15;;;;;;;12.85;60.28;101085.50;676044;29;1791;-76
2022/06/21 01:00:37;;;;;;;9.13;6.18;;;;;;;12.81;60.13;101076.69;679544;29;1366;-76
2022/06/21 01:01:22;;;;;;;7.88;5.90;;;;;;;12.88;59.93;101091.69;682424;29;832;-76
2022/06/21 01:01:43;;;;;;;6.72;5.82;;;;;;;12.77;60.22;101071.34;679411;29;1432;-77
2022/06/21 01:02:25;;;;;;;7.77;5.90;;;;;;;12.83;60.25;101082.81;679612;29;1159;-77
2022/06/21 01:02:46;;;;;;;7.05;5.45;;;;;;;12.74;60.27;101067.78;681684;29;1323;-77
2022/06/21 01:03:15;;;;;;;6.32;5.72;;;;;;;12.77;60.06;101066.97;686205;28;1635;-77
2022/06/21 01:03:58;;;;;;;7.00;6.30;;;;;;;12.77;59.84;101068.72;684212;28;2063;-76
2022/06/21 01:04:34;;;;;;;9.55;6.65;;;;;;;12.85;59.86;101082.88;676282;29;1802;-76
2022/06/21 01:04:57;;;;;;;8.18;6.10;;;;;;;12.77;60.08;101079.19;680560;29;1049;-77
2022/06/21 01:05:18;;;;;;;6.63;5.68;;;;;;;12.77;60.14;101077.44;677168;29;1091;-76
2022/06/21 01:05:43;;;;;;;6.18;5.57;;;;;;;12.69;60.17;101064.19;681770;29;1669;-76
2022/06/21 01:06:11;;;;;;;6.95;5.97;;;;;;;12.81;60.01;101076.69;679889;29;1101;-76
2022/06/21 01:06:39;;;;;;;8.13;6.30;;;;;;;12.80;60.17;101087.09;677481;29;1255;-76
2022/06/21 01:07:03;;;;;;;7.63;5.80;;;;;;;12.68;60.04;101066.75;679062;29;1657;-76
2022/06/21 01:07:25;;;;;;;6.13;5.53;;;;;;;12.68;60.36;101061.50;677180;29;919;-76
2022/06/21 01:07:46;;;;;;;6.28;5.68;;;;;;;12.69;60.22;101071.13;683097;28;1298;-77
2022/06/21 01:08:08;;;;;;;6.60;6.00;;;;;;;12.66;60.15;101068.47;682219;29;1274;-76
2022/06/21 01:08:34;;;;;;;6.28;5.60;;;;;;;12.63;60.18;101064.03;680278;28;977;-77
2022/06/21 01:09:03;;;;;;;6.60;5.28;;;;;;;12.68;60.11;101072.00;686603;28;1057;-76
2022/06/21 01:09:33;;;;;;;7.97;5.30;;;;;;;12.64;60.42;101070.16;687523;28;1982;-76
2022/06/21 01:10:00;;;;;;;6.82;5.45;;;;;;;12.61;60.50;101081.44;686240;28;1093;-76
2022/06/21 01:10:23;;;;;;;6.43;5.82;;;;;;;12.50;60.89;101075.94;683564;28;1193;-76
2022/06/21 01:10:47;;;;;;;6.22;5.63;;;;;;;12.42;60.85;101053.91;679873;29;1085;-77
2022/06/21 01:11:15;;;;;;;8.45;5.88;;;;;;;12.53;60.95;101062.91;680491;29;1416;-76
2022/06/21 01:11:45;;;;;;;7.70;5.85;;;;;;;12.51;60.71;101062.00;679729;29;1185;-77
2022/06/21 01:12:15;;;;;;;6.72;5.95;;;;;;;12.53;60.80;101062.91;676945;29;1399;-77
2022/06/21 01:12:48;;;;;;;6.30;5.70;;;;;;;12.60;60.72;101075.31;681422;28;2038;-76
2022/06/21 01:13:14;;;;;;;6.40;5.60;;;;;;;12.59;60.69;101068.31;682356;29;1263;-77
2022/06/21 01:13:41;;;;;;;7.57;6.20;;;;;;;12.61;60.62;101071.84;683641;28;1659;-77
2022/06/21 01:14:02;;;;;;;7.68;6.25;;;;;;;12.59;60.69;101068.31;681979;29;2125;-76
2022/06/21 01:14:25;;;;;;;7.32;5.93;;;;;;;12.57;60.92;101064.75;684135;28;789;-77
2022/06/21 01:14:57;;;;;;;7.45;6.30;;;;;;;12.62;61.01;101072.72;681938;29;1803;-77
2022/06/21 01:15:40;;;;;;;6.93;6.22;;;;;;;12.53;60.75;101055.06;679733;29;1035;-77
2022/06/21 01:16:02;;;;;;;7.60;6.28;;;;;;;12.50;61.17;101055.00;680224;29;918;-78
2022/06/21 01:16:27;;;;;;;7.60;5.70;;;;;;;12.54;61.08;101059.44;679583;29;1408;-77
2022/06/21 01:16:48;;;;;;;9.38;5.85;;;;;;;12.49;60.86;101055.84;684528;28;1311;-77
2022/06/21 01:17:10;;;;;;;8.25;5.70;;;;;;;12.48;60.77;101054.06;685129;28;1080;-77
2022/06/21 01:17:33;;;;;;;8.63;6.00;;;;;;;12.50;61.17;101062.84;679522;29;1521;-77
2022/06/21 01:17:57;;;;;;;6.90;5.90;;;;;;;12.45;61.10;101059.22;685006;28;1088;-77
2022/06/21 01:18:24;;;;;;;7.88;5.75;;;;;;;12.48;61.00;101061.94;685756;28;1339;-77
2022/06/21 01:18:46;;;;;;;7.90;5.85;;;;;;;12.46;61.01;101060.97;681558;29;1038;-77
2022/06/21 01:19:14;;;;;;;7.35;5.60;;;;;;;12.41;60.95;101053.00;676926;29;1717;-77
2022/06/21 01:19:51;;;;;;;6.80;6.10;;;;;;;12.40;61.12;101051.25;680253;29;1367;-77
2022/06/21 01:20:17;;;;;;;6.82;5.90;;;;;;;12.36;61.05;101043.28;679632;29;1032;-77
2022/06/21 01:20:44;;;;;;;6.07;5.20;;;;;;;12.41;61.09;101049.53;683577;28;1884;-76
2022/06/21 01:21:05;;;;;;;6.45;5.20;;;;;;;12.33;61.03;101038.84;684493;28;1267;-77
2022/06/21 01:21:30;;;;;;;6.80;5.50;;;;;;;12.42;61.14;101046.06;681867;29;1079;-78
2022/06/21 01:21:55;;;;;;;6.90;5.60;;;;;;;12.33;61.00;101039.75;684451;28;1398;-77
2022/06/21 01:22:22;;;;;;;7.43;5.80;;;;;;;12.42;60.94;101053.91;682298;29;1407;-78
2022/06/21 01:22:52;;;;;;;7.70;5.90;;;;;;;12.35;61.08;101047.63;681866;28;1429;-78
2022/06/21 01:23:38;;;;;;;8.20;5.95;;;;;;;12.41;61.35;101045.16;682054;28;1178;-77
2022/06/21 01:24:12;;;;;;;9.43;6.00;;;;;;;12.30;61.12;101031.81;681656;28;1851;-77
2022/06/21 01:24:54;;;;;;;8.60;5.68;;;;;;;12.31;61.67;101036.19;683120;28;801;-77
2022/06/21 01:25:52;;;;;;;7.28;5.93;;;;;;;12.34;61.43;101046.75;684966;28;1057;-77
2022/06/21 01:26:32;;;;;;;7.07;6.15;;;;;;;12.32;61.12;101048.47;686258;28;1715;-77
2022/06/21 01:26:58;;;;;;;6.70;6.00;;;;;;;12.23;60.93;101032.50;684863;28;1072;-77
2022/06/21 01:27:18;;;;;;;6.43;5.82;;;;;;;12.23;61.35;101036.88;687703;28;1964;-77
2022/06/21 01:27:39;;;;;;;6.50;5.90;;;;;;;12.21;61.36;101036.81;681952;29;1264;-77
2022/06/21 01:28:02;;;;;;;6.55;5.95;;;;;;;12.22;61.50;101033.34;680768;29;804;-78
2022/06/21 01:28:24;;;;;;;6.80;6.10;;;;;;;12.27;61.39;101043.94;679769;29;1339;-77
2022/06/21 01:28:46;;;;;;;8.75;6.32;;;;;;;12.21;61.33;101031.59;681214;28;1133;-77
2022/06/21 01:29:11;;;;;;;8.18;6.30;;;;;;;12.30;61.55;101044.03;679645;29;1902;-77
2022/06/21 01:29:35;;;;;;;8.25;6.45;;;;;;;12.24;61.66;101036.00;679090;29;793;-77
2022/06/21 01:29:56;;;;;;;7.25;6.47;;;;;;;12.19;61.43;101028.06;681878;29;1153;-77
2022/06/21 01:30:17;;;;;;;8.60;6.72;;;;;;;12.24;61.40;101041.25;682425;29;990;-77
2022/06/21 01:30:43;;;;;;;7.97;6.32;;;;;;;12.16;61.62;101030.59;679559;29;2254;-77
2022/06/21 01:31:05;;;;;;;6.88;5.90;;;;;;;12.21;61.52;101042.03;676945;29;1321;-77
2022/06/21 01:31:28;;;;;;;6.43;5.72;;;;;;;12.14;61.79;101032.25;679729;29;2004;-77
2022/06/21 01:31:49;;;;;;;9.27;6.20;;;;;;;12.19;61.70;101051.59;680720;29;1135;-78
2022/06/21 01:32:09;;;;;;;9.18;6.30;;;;;;;12.15;61.63;101050.63;681057;29;1654;-78
2022/06/21 01:32:31;;;;;;;7.38;6.18;;;;;;;12.12;61.96;101039.19;679708;29;1188;-77
2022/06/21 01:32:52;;;;;;;6.88;6.18;;;;;;;12.09;61.73;101047.84;681988;28;1819;-77
2022/06/21 01:33:16;;;;;;;7.63;6.38;;;;;;;12.12;62.16;101045.34;682295;29;1067;-78
2022/06/21 01:33:40;;;;;;;7.78;6.47;;;;;;;12.08;61.92;101038.22;679241;29;1111;-78
2022/06/21 01:34:01;;;;;;;7.68;6.55;;;;;;;12.09;61.92;101040.00;681660;29;1938;-77
2022/06/21 01:34:26;;;;;;;9.10;7.20;;;;;;;12.12;62.10;101055.78;682476;29;1222;-78
2022/06/21 01:34:46;;;;;;;9.52;7.28;;;;;;;12.12;62.11;101052.28;681916;29;1415;-77
2022/06/21 01:35:43;;;;;;;9.52;7.38;;;;;;;12.12;62.37;101050.56;682128;29;1473;-77
2022/06/21 01:36:31;;;;;;;7.88;6.45;;;;;;;12.13;61.93;101048.81;678468;29;1573;-78
2022/06/21 01:37:09;;;;;;;7.70;6.90;;;;;;;12.14;61.93;101058.44;679022;28;1641;-77
2022/06/21 01:37:30;;;;;;;7.43;6.70;;;;;;;12.22;62.00;101066.50;687911;28;831;-78
2022/06/21 01:37:52;;;;;;;7.70;6.60;;;;;;;12.20;61.97;101063.81;689074;28;1093;-77
2022/06/21 01:38:19;;;;;;;8.65;6.65;;;;;;;12.22;62.01;101069.97;687882;28;1109;-77
2022/06/21 01:38:50;;;;;;;9.15;7.00;;;;;;;12.16;62.00;101047.16;684976;28;1033;-77
2022/06/21 01:39:22;;;;;;;8.73;7.00;;;;;;;12.22;61.72;101059.50;682810;28;1435;-77
2022/06/21 01:39:58;;;;;;;7.13;6.43;;;;;;;12.26;61.78;101069.22;678896;29;1919;-77
2022/06/21 01:40:31;;;;;;;7.95;7.18;;;;;;;12.19;62.10;101051.59;684003;28;897;-78
2022/06/21 01:40:58;;;;;;;8.10;7.30;;;;;;;12.17;61.80;101054.16;682227;28;1297;-77
2022/06/21 01:41:23;;;;;;;7.82;7.10;;;;;;;12.22;61.85;101066.50;684181;28;1717;-77
2022/06/21 01:41:54;;;;;;;7.50;6.80;;;;;;;12.14;61.85;101048.88;687168;28;1166;-77
2022/06/21 01:42:25;;;;;;;7.97;6.57;;;;;;;12.08;61.59;101038.22;684850;28;1116;-77
2022/06/21 01:42:50;;;;;;;7.95;6.60;;;;;;;12.12;61.60;101049.66;683988;28;1106;-77
2022/06/21 01:43:15;;;;;;;7.47;6.68;;;;;;;12.13;61.72;101056.66;679706;29;1595;-77
2022/06/21 01:43:40;;;;;;;7.30;6.60;;;;;;;12.03;61.77;101051.19;682119;29;1093;-77
2022/06/21 01:44:06;;;;;;;7.20;6.50;;;;;;;12.03;61.81;101050.28;685097;28;831;-77
2022/06/21 01:44:37;;;;;;;7.38;6.60;;;;;;;12.07;61.98;101060.88;684811;28;996;-78
2022/06/21 01:45:03;;;;;;;8.15;7.20;;;;;;;12.05;61.90;101059.97;686969;28;1460;-76
2022/06/21 01:45:28;;;;;;;8.40;7.50;;;;;;;12.04;62.05;101057.31;682068;29;1305;-78
2022/06/21 01:46:00;;;;;;;8.57;7.35;;;;;;;12.04;62.23;101063.44;686625;28;1099;-77
2022/06/21 01:46:29;;;;;;;9.70;7.00;;;;;;;12.07;62.43;101060.88;687583;28;1205;-77
2022/06/21 01:46:50;;;;;;;8.48;6.75;;;;;;;11.98;62.44;101047.56;681131;29;1543;-77
2022/06/21 01:47:15;;;;;;;8.05;7.03;;;;;;;12.02;62.30;101052.03;682294;29;1191;-77
2022/06/21 01:47:46;;;;;;;8.00;7.20;;;;;;;12.02;62.21;101049.44;679313;29;998;-78
2022/06/21 01:48:06;;;;;;;7.88;7.15;;;;;;;12.14;62.24;101059.31;679612;29;1131;-77
2022/06/21 01:48:35;;;;;;;7.68;6.88;;;;;;;12.09;62.06;101054.84;682456;29;764;-77
2022/06/21 01:49:03;;;;;;;8.18;6.93;;;;;;;12.00;61.95;101040.66;680084;29;1263;-78
2022/06/21 01:49:28;;;;;;;8.68;7.10;;;;;;;12.00;61.95;101045.91;679066;29;2112;-77
2022/06/21 01:49:53;;;;;;;9.50;7.38;;;;;;;12.11;62.12;101059.22;681557;29;1231;-77
2022/06/21 01:50:16;;;;;;;11.07;8.20;;;;;;;12.02;62.07;101041.59;682305;29;1156;-77
2022/06/21 01:50:38;;;;;;;11.48;7.68;;;;;;;12.02;62.26;101049.44;682846;28;1198;-77
2022/06/21 01:51:06;;;;;;;10.35;7.43;;;;;;;11.99;61.95;101051.94;679617;29;841;-77
2022/06/21 01:51:51;;;;;;;10.38;7.13;;;;;;;12.09;62.29;101062.69;682509;29;772;-77
2022/06/21 01:52:31;;;;;;;8.13;7.18;;;;;;;12.07;62.28;101063.50;680723;29;1698;-77
2022/06/21 01:52:54;;;;;;;8.43;7.10;;;;;;;11.95;62.42;101044.88;685767;28;1111;-77
2022/06/21 01:53:19;;;;;;;11.10;7.10;;;;;;;12.00;62.21;101061.59;683493;28;1130;-77
2022/06/21 01:53:41;;;;;;;10.27;7.07;;;;;;;11.97;62.49;101045.78;683760;28;1973;-78
2022/06/21 01:54:05;;;;;;;7.88;6.80;;;;;;;11.97;62.22;101048.41;685715;28;1782;-77
2022/06/21 01:54:32;;;;;;;9.07;6.80;;;;;;;11.94;62.48;101040.50;687258;28;956;-77
2022/06/21 01:55:01;;;;;;;9.23;6.80;;;;;;;11.98;62.58;101052.78;682321;28;1105;-77
2022/06/21 01:55:50;;;;;;;8.60;6.93;;;;;;;11.94;62.35;101045.72;683910;28;1522;-78
2022/06/21 01:56:21;;;;;;;8.68;7.20;;;;;;;11.94;62.55;101050.97;682383;29;1209;-77
2022/06/21 01:56:43;;;;;;;8.13;7.28;;;;;;;11.96;62.56;101054.50;680495;28;1357;-77
2022/06/21 01:57:04;;;;;;;8.27;7.40;;;;;;;11.93;62.40;101055.28;681729;29;1371;-77
2022/06/21 01:57:26;;;;;;;8.25;7.35;;;;;;;11.90;62.36;101055.22;684649;28;1272;-79
2022/06/21 01:57:49;;;;;;;7.90;7.10;;;;;;;11.87;62.42;101049.00;682034;29;1774;-80
2022/06/21 01:58:16;;;;;;;7.75;7.00;;;;;;;11.82;62.51;101048.88;680853;28;1416;-79
2022/06/21 01:58:44;;;;;;;7.90;7.10;;;;;;;11.89;62.45;101065.63;682605;28;1360;-79
2022/06/21 01:59:20;;;;;;;7.97;6.50;;;;;;;11.82;62.41;101050.59;680143;28;970;-78
2022/06/21 02:00:18;;;;;;;7.85;6.25;;;;;;;11.92;62.62;101068.31;680122;29;2162;-77
2022/06/21 02:00:43;;;;;;;7.57;6.78;;;;;;;11.87;62.51;101062.97;681895;28;1524;-77
2022/06/21 02:01:28;;;;;;;7.70;6.90;;;;;;;11.83;62.60;101058.50;674390;29;1099;-79
2022/06/21 02:01:56;;;;;;;7.80;6.45;;;;;;;11.94;62.50;101066.66;678602;29;1637;-79
2022/06/21 02:02:23;;;;;;;7.43;6.63;;;;;;;11.92;62.45;101063.09;682278;29;986;-79
2022/06/21 02:02:49;;;;;;;7.88;7.07;;;;;;;11.90;62.43;101065.69;681776;28;1718;-79
2022/06/21 02:03:15;;;;;;;8.07;7.18;;;;;;;11.85;62.30;101055.94;682209;29;1097;-78
2022/06/21 02:03:40;;;;;;;7.85;7.05;;;;;;;11.95;62.58;101073.66;677583;29;1675;-80
2022/06/21 02:04:03;;;;;;;7.72;6.93;;;;;;;11.86;62.81;101052.47;677457;29;1085;-79
2022/06/21 02:04:27;;;;;;;8.43;6.70;;;;;;;11.81;62.52;101046.22;677914;29;1452;-79
2022/06/21 02:04:58;;;;;;;7.50;6.45;;;;;;;11.82;62.48;101053.22;681968;28;1869;-79
2022/06/21 02:05:25;;;;;;;7.63;6.82;;;;;;;11.81;62.68;101054.06;680453;29;908;-79
2022/06/21 02:05:50;;;;;;;7.90;7.00;;;;;;;11.85;62.46;101061.16;680439;29;1470;-79
2022/06/21 02:06:13;;;;;;;7.45;6.68;;;;;;;11.77;62.43;101058.31;684816;28;1211;-79
2022/06/21 02:06:40;;;;;;;7.38;6.65;;;;;;;11.73;62.66;101051.25;685179;28;1507;-79
2022/06/21 02:07:06;;;;;;;7.32;6.63;;;;;;;11.75;62.69;101057.41;685326;28;1148;-79
2022/06/21 02:07:33;;;;;;;7.88;7.05;;;;;;;11.68;62.70;101048.50;685147;28;1730;-79
2022/06/21 02:07:59;;;;;;;7.93;6.70;;;;;;;11.69;62.90;101055.50;684525;28;1465;-79
2022/06/21 02:08:26;;;;;;;10.05;6.40;;;;;;;11.72;62.80;101058.19;682709;29;1046;-79
2022/06/21 02:09:03;;;;;;;9.55;6.30;;;;;;;11.74;62.83;101068.72;683322;28;1616;-79
2022/06/21 02:09:27;;;;;;;8.23;6.68;;;;;;;11.65;62.71;101048.41;679861;29;1970;-80
2022/06/21 02:09:58;;;;;;;8.50;6.72;;;;;;;11.69;62.85;101057.22;680262;29;1513;-79
2022/06/21 02:10:25;;;;;;;7.43;6.60;;;;;;;11.70;62.89;101062.50;687148;28;1485;-79
2022/06/21 02:10:58;;;;;;;7.75;6.97;;;;;;;11.63;63.06;101050.94;686772;28;1478;-78
2022/06/21 02:11:27;;;;;;;10.27;7.40;;;;;;;11.65;62.76;101056.25;685028;28;1269;-79
2022/06/21 02:12:00;;;;;;;12.40;7.28;;;;;;;11.69;62.75;101058.13;684971;28;1674;-79
2022/06/21 02:12:21;;;;;;;12.48;6.88;;;;;;;11.68;62.96;101053.72;682704;29;1066;-79
2022/06/21 02:12:50;;;;;;;11.32;6.57;;;;;;;11.64;63.25;101044.00;678702;29;1547;-79
2022/06/21 02:13:20;;;;;;;7.47;6.40;;;;;;;11.64;62.90;101041.38;677243;29;1509;-79
2022/06/21 02:13:45;;;;;;;8.30;6.45;;;;;;;11.64;62.93;101051.84;678649;29;1503;-79
2022/06/21 02:14:29;;;;;;;9.02;6.60;;;;;;;11.66;62.77;101060.63;679735;29;1145;-79
2022/06/21 02:14:55;;;;;;;11.60;6.53;;;;;;;11.62;62.65;101054.41;685644;28;1458;-79
2022/06/21 02:15:36;;;;;;;12.50;6.60;;;;;;;11.58;62.99;101047.34;685565;28;1109;-79
2022/06/21 02:16:02;;;;;;;7.53;6.60;;;;;;;11.52;62.74;101045.44;684794;28;1965;-79
2022/06/21 02:16:24;;;;;;;7.25;6.55;;;;;;;11.55;62.97;101054.19;680010;29;2160;-79
2022/06/21 02:16:48;;;;;;;7.10;6.40;;;;;;;11.49;62.81;101037.50;681093;29;1791;-79
2022/06/21 02:17:19;;;;;;;9.40;6.35;;;;;;;11.57;62.97;101055.13;675281;29;1694;-78
2022/06/21 02:17:43;;;;;;;10.00;6.90;;;;;;;11.50;62.70;101043.63;684981;28;1140;-79
2022/06/21 02:18:10;;;;;;;7.72;6.93;;;;;;;11.50;62.77;101046.22;682801;29;1135;-79
2022/06/21 02:18:33;;;;;;;7.40;6.70;;;;;;;11.47;62.79;101041.81;688039;28;1636;-78
2022/06/21 02:18:57;;;;;;;7.38;6.72;;;;;;;11.45;62.82;101038.25;689231;28;1056;-79
2022/06/21 02:19:38;;;;;;;7.65;6.90;;;;;;;11.44;63.11;101044.31;682202;28;1984;-79
2022/06/21 02:20:12;;;;;;;7.82;7.03;;;;;;;11.49;62.91;101047.94;684842;28;1109;-79
2022/06/21 02:20:50;;;;;;;7.55;6.80;;;;;;;11.46;62.89;101050.47;683390;28;2077;-79
2022/06/21 02:21:28;;;;;;;10.35;7.05;;;;;;;11.41;62.94;101033.78;684335;28;939;-78
2022/06/21 02:21:49;;;;;;;9.88;6.97;;;;;;;11.52;63.10;101055.91;682349;29;1419;-78
2022/06/21 02:22:21;;;;;;;8.38;6.70;;;;;;;11.45;62.99;101040.88;680151;29;1500;-79
2022/06/21 02:22:42;;;;;;;7.70;6.60;;;;;;;11.47;62.93;101048.75;678879;29;2017;-78
2022/06/21 02:23:05;;;;;;;7.88;6.60;;;;;;;11.52;62.94;101048.06;680271;29;1054;-79
2022/06/21 02:23:27;;;;;;;7.32;6.60;;;;;;;11.44;63.19;101038.22;680030;29;1484;-80
2022/06/21 02:23:54;;;;;;;7.05;6.35;;;;;;;11.35;63.31;101033.59;682690;28;1112;-79
2022/06/21 02:24:15;;;;;;;7.70;6.90;;;;;;;11.33;63.22;101030.97;685344;28;1217;-79
2022/06/21 02:24:36;;;;;;;8.57;7.18;;;;;;;11.43;63.36;101039.91;685339;28;1196;-79
2022/06/21 02:24:58;;;;;;;8.45;7.28;;;;;;;11.39;63.23;101032.84;687504;28;1115;-79
2022/06/21 02:25:23;;;;;;;7.65;6.82;;;;;;;11.43;63.39;101037.31;682527;29;1399;-79
2022/06/21 02:25:44;;;;;;;8.45;6.80;;;;;;;11.39;63.24;101040.69;679904;29;1968;-80
2022/06/21 02:26:06;;;;;;;8.30;7.10;;;;;;;11.45;63.59;101040.88;680137;29;1050;-80